sensor_id;sensor_type;location;lat;lon;timestamp;temperature;humidity
9193;DHT22;4631;49.296;10.560;2023-06-26T00:00:47;20.10;99.90
9193;DHT22;4631;49.296;10.560;2023-06-26T00:03:13;20.00;99.90
9193;DHT22;4631;49.296;10.560;2023-06-26T00:05:41;20.00;99.90
9193;DHT22;4631;49.296;10.560;2023-06-26T00:08:08;20.00;99.90
9193;DHT22;4631;49.296;10.560;2023-06-26T00:10:35;19.90;99.90
9193;DHT22;4631;49.296;10.560;2023-06-26T00:13:01;19.80;99.90
9193;DHT22;4631;49.296;10.560;2023-06-26T00:15:28;19.70;99.90
9193;DHT22;4631;49.296;10.560;2023-06-26T00:24:04;19.50;99.90
9193;DHT22;4631;49.296;10.560;2023-06-26T00:26:31;19.50;99.90
9193;DHT22;4631;49.296;10.560;2023-06-26T00:28:57;19.40;99.90
9193;DHT22;4631;49.296;10.560;2023-06-26T00:31:24;19.30;99.90
9193;DHT22;4631;49.296;10.560;2023-06-26T00:33:51;19.20;99.90
9193;DHT22;4631;49.296;10.560;2023-06-26T00:36:17;19.20;99.90
9193;DHT22;4631;49.296;10.560;2023-06-26T00:38:44;19.20;99.90
9193;DHT22;4631;49.296;10.560;2023-06-26T00:41:12;19.20;99.90
9193;DHT22;4631;49.296;10.560;2023-06-26T00:43:38;19.20;99.90
9193;DHT22;4631;49.296;10.560;2023-06-26T00:46:07;19.20;99.90
9193;DHT22;4631;49.296;10.560;2023-06-26T00:48:34;19.10;99.90
9193;DHT22;4631;49.296;10.560;2023-06-26T00:51:01;19.00;99.90
9193;DHT22;4631;49.296;10.560;2023-06-26T00:53:28;18.90;99.90
9193;DHT22;4631;49.296;10.560;2023-06-26T00:55:55;18.90;99.90
9193;DHT22;4631;49.296;10.560;2023-06-26T00:58:24;18.80;99.90
9193;DHT22;4631;49.296;10.560;2023-06-26T01:00:51;18.80;99.90
9193;DHT22;4631;49.296;10.560;2023-06-26T01:03:18;18.80;99.90
9193;DHT22;4631;49.296;10.560;2023-06-26T01:05:44;18.80;99.90
9193;DHT22;4631;49.296;10.560;2023-06-26T01:08:15;18.80;99.90
9193;DHT22;4631;49.296;10.560;2023-06-26T01:10:42;18.80;99.90
9193;DHT22;4631;49.296;10.560;2023-06-26T01:13:08;18.70;99.90
9193;DHT22;4631;49.296;10.560;2023-06-26T01:15:36;18.70;99.90
9193;DHT22;4631;49.296;10.560;2023-06-26T01:18:03;18.60;99.90
9193;DHT22;4631;49.296;10.560;2023-06-26T01:20:30;18.60;99.90
9193;DHT22;4631;49.296;10.560;2023-06-26T01:23:00;18.60;99.90
9193;DHT22;4631;49.296;10.560;2023-06-26T01:25:32;18.60;99.90
9193;DHT22;4631;49.296;10.560;2023-06-26T01:28:05;18.50;99.90
9193;DHT22;4631;49.296;10.560;2023-06-26T01:30:32;18.40;99.90
9193;DHT22;4631;49.296;10.560;2023-06-26T01:33:00;18.40;99.90
9193;DHT22;4631;49.296;10.560;2023-06-26T01:35:29;18.40;99.90
9193;DHT22;4631;49.296;10.560;2023-06-26T01:38:10;18.30;99.90
9193;DHT22;4631;49.296;10.560;2023-06-26T01:40:37;18.20;99.90
9193;DHT22;4631;49.296;10.560;2023-06-26T01:43:05;18.20;99.90
9193;DHT22;4631;49.296;10.560;2023-06-26T01:45:32;18.10;99.90
9193;DHT22;4631;49.296;10.560;2023-06-26T01:47:59;18.10;99.90
9193;DHT22;4631;49.296;10.560;2023-06-26T01:50:28;18.00;99.90
9193;DHT22;4631;49.296;10.560;2023-06-26T01:52:58;18.00;99.90
9193;DHT22;4631;49.296;10.560;2023-06-26T01:55:28;18.00;99.90
9193;DHT22;4631;49.296;10.560;2023-06-26T01:58:01;17.90;99.90
9193;DHT22;4631;49.296;10.560;2023-06-26T02:00:29;17.80;99.90
9193;DHT22;4631;49.296;10.560;2023-06-26T02:09:02;17.70;99.90
9193;DHT22;4631;49.296;10.560;2023-06-26T02:11:31;17.70;99.90
9193;DHT22;4631;49.296;10.560;2023-06-26T02:14:00;17.60;99.90
9193;DHT22;4631;49.296;10.560;2023-06-26T02:16:28;17.50;99.90
9193;DHT22;4631;49.296;10.560;2023-06-26T02:18:54;17.50;99.90
9193;DHT22;4631;49.296;10.560;2023-06-26T02:21:23;17.40;99.90
9193;DHT22;4631;49.296;10.560;2023-06-26T02:23:49;17.40;99.90
9193;DHT22;4631;49.296;10.560;2023-06-26T02:26:16;17.40;99.90
9193;DHT22;4631;49.296;10.560;2023-06-26T02:47:10;17.10;99.90
9193;DHT22;4631;49.296;10.560;2023-06-26T02:49:37;17.00;99.90
9193;DHT22;4631;49.296;10.560;2023-06-26T02:52:04;17.00;99.90
9193;DHT22;4631;49.296;10.560;2023-06-26T03:00:22;16.90;99.90
9193;DHT22;4631;49.296;10.560;2023-06-26T03:02:50;16.90;99.90
9193;DHT22;4631;49.296;10.560;2023-06-26T03:05:17;16.90;99.90
9193;DHT22;4631;49.296;10.560;2023-06-26T03:07:43;16.80;99.90
9193;DHT22;4631;49.296;10.560;2023-06-26T03:13:25;16.70;99.90
9193;DHT22;4631;49.296;10.560;2023-06-26T03:15:51;16.60;99.90
9193;DHT22;4631;49.296;10.560;2023-06-26T03:18:19;16.60;99.90
9193;DHT22;4631;49.296;10.560;2023-06-26T03:20:46;16.50;99.90
9193;DHT22;4631;49.296;10.560;2023-06-26T03:29:18;16.40;99.90
9193;DHT22;4631;49.296;10.560;2023-06-26T03:31:45;16.40;99.90
9193;DHT22;4631;49.296;10.560;2023-06-26T03:34:13;16.40;99.90
9193;DHT22;4631;49.296;10.560;2023-06-26T03:36:40;16.40;99.90
9193;DHT22;4631;49.296;10.560;2023-06-26T03:39:06;16.40;99.90
9193;DHT22;4631;49.296;10.560;2023-06-26T03:41:34;16.40;99.90
9193;DHT22;4631;49.296;10.560;2023-06-26T03:50:06;16.40;99.90
9193;DHT22;4631;49.296;10.560;2023-06-26T03:52:33;16.40;99.90
9193;DHT22;4631;49.296;10.560;2023-06-26T03:55:00;16.30;99.90
9193;DHT22;4631;49.296;10.560;2023-06-26T03:57:28;16.30;99.90
9193;DHT22;4631;49.296;10.560;2023-06-26T04:03:03;16.30;99.90
9193;DHT22;4631;49.296;10.560;2023-06-26T04:05:31;16.30;99.90
9193;DHT22;4631;49.296;10.560;2023-06-26T04:14:08;16.30;99.90
9193;DHT22;4631;49.296;10.560;2023-06-26T04:16:35;16.30;99.90
9193;DHT22;4631;49.296;10.560;2023-06-26T04:19:11;16.30;99.90
9193;DHT22;4631;49.296;10.560;2023-06-26T04:24:52;16.30;99.90
9193;DHT22;4631;49.296;10.560;2023-06-26T04:27:18;16.30;99.90
9193;DHT22;4631;49.296;10.560;2023-06-26T04:29:45;16.30;99.90
9193;DHT22;4631;49.296;10.560;2023-06-26T04:32:12;16.40;99.90
9193;DHT22;4631;49.296;10.560;2023-06-26T04:37:53;16.50;99.90
9193;DHT22;4631;49.296;10.560;2023-06-26T04:40:21;16.60;99.90
9193;DHT22;4631;49.296;10.560;2023-06-26T04:42:48;16.70;99.90
9193;DHT22;4631;49.296;10.560;2023-06-26T04:45:14;16.70;99.90
9193;DHT22;4631;49.296;10.560;2023-06-26T04:47:41;16.80;99.90
9193;DHT22;4631;49.296;10.560;2023-06-26T04:53:11;17.00;99.90
9193;DHT22;4631;49.296;10.560;2023-06-26T04:55:38;17.10;99.90
9193;DHT22;4631;49.296;10.560;2023-06-26T05:04:12;17.30;99.90
9193;DHT22;4631;49.296;10.560;2023-06-26T05:06:38;17.50;99.90
9193;DHT22;4631;49.296;10.560;2023-06-26T05:09:05;17.50;99.90
9193;DHT22;4631;49.296;10.560;2023-06-26T05:11:33;17.60;99.90
9193;DHT22;4631;49.296;10.560;2023-06-26T05:13:59;17.70;99.90
9193;DHT22;4631;49.296;10.560;2023-06-26T05:16:26;17.80;99.90
9193;DHT22;4631;49.296;10.560;2023-06-26T05:18:53;17.90;99.90
9193;DHT22;4631;49.296;10.560;2023-06-26T05:21:20;18.10;99.90
9193;DHT22;4631;49.296;10.560;2023-06-26T05:23:47;18.20;99.90
9193;DHT22;4631;49.296;10.560;2023-06-26T05:26:15;18.30;99.90
9193;DHT22;4631;49.296;10.560;2023-06-26T05:28:43;18.40;99.90
9193;DHT22;4631;49.296;10.560;2023-06-26T05:31:13;18.50;99.90
9193;DHT22;4631;49.296;10.560;2023-06-26T05:33:40;18.60;99.90
9193;DHT22;4631;49.296;10.560;2023-06-26T05:36:10;18.70;99.90
9193;DHT22;4631;49.296;10.560;2023-06-26T05:38:38;18.90;99.90
9193;DHT22;4631;49.296;10.560;2023-06-26T05:41:05;19.00;99.90
9193;DHT22;4631;49.296;10.560;2023-06-26T05:43:32;19.20;99.90
9193;DHT22;4631;49.296;10.560;2023-06-26T05:46:04;19.30;99.90
9193;DHT22;4631;49.296;10.560;2023-06-26T05:48:30;19.40;99.90
9193;DHT22;4631;49.296;10.560;2023-06-26T05:50:57;19.60;99.90
9193;DHT22;4631;49.296;10.560;2023-06-26T05:53:24;19.80;99.90
9193;DHT22;4631;49.296;10.560;2023-06-26T05:55:51;19.80;99.90
9193;DHT22;4631;49.296;10.560;2023-06-26T05:58:18;20.00;99.90
9193;DHT22;4631;49.296;10.560;2023-06-26T06:00:46;20.20;99.90
9193;DHT22;4631;49.296;10.560;2023-06-26T06:03:14;20.40;99.90
9193;DHT22;4631;49.296;10.560;2023-06-26T06:05:40;20.50;99.90
9193;DHT22;4631;49.296;10.560;2023-06-26T06:08:07;20.60;99.90
9193;DHT22;4631;49.296;10.560;2023-06-26T06:10:34;20.80;99.90
9193;DHT22;4631;49.296;10.560;2023-06-26T06:13:00;20.90;99.90
9193;DHT22;4631;49.296;10.560;2023-06-26T06:20:31;21.10;99.90
9193;DHT22;4631;49.296;10.560;2023-06-26T06:22:58;21.20;99.90
9193;DHT22;4631;49.296;10.560;2023-06-26T06:25:25;21.30;99.90
9193;DHT22;4631;49.296;10.560;2023-06-26T06:27:51;21.30;99.90
9193;DHT22;4631;49.296;10.560;2023-06-26T06:30:18;21.40;99.90
9193;DHT22;4631;49.296;10.560;2023-06-26T06:32:45;21.50;99.90
9193;DHT22;4631;49.296;10.560;2023-06-26T06:35:15;21.70;99.90
9193;DHT22;4631;49.296;10.560;2023-06-26T06:37:44;21.80;99.90
9193;DHT22;4631;49.296;10.560;2023-06-26T06:40:10;21.90;99.90
9193;DHT22;4631;49.296;10.560;2023-06-26T06:42:37;22.10;99.90
9193;DHT22;4631;49.296;10.560;2023-06-26T06:45:04;22.20;99.90
9193;DHT22;4631;49.296;10.560;2023-06-26T06:47:32;22.30;99.90
9193;DHT22;4631;49.296;10.560;2023-06-26T06:49:59;22.40;99.90
9193;DHT22;4631;49.296;10.560;2023-06-26T06:52:33;22.50;99.90
9193;DHT22;4631;49.296;10.560;2023-06-26T06:55:01;22.50;99.90
9193;DHT22;4631;49.296;10.560;2023-06-26T06:57:30;22.60;99.90
9193;DHT22;4631;49.296;10.560;2023-06-26T07:00:01;22.70;99.90
9193;DHT22;4631;49.296;10.560;2023-06-26T07:02:28;22.70;99.90
9193;DHT22;4631;49.296;10.560;2023-06-26T07:04:54;22.80;99.90
9193;DHT22;4631;49.296;10.560;2023-06-26T07:07:21;22.90;99.90
9193;DHT22;4631;49.296;10.560;2023-06-26T07:09:49;23.00;99.90
9193;DHT22;4631;49.296;10.560;2023-06-26T07:12:18;23.10;99.90
9193;DHT22;4631;49.296;10.560;2023-06-26T07:14:44;23.20;99.90
9193;DHT22;4631;49.296;10.560;2023-06-26T07:17:11;23.30;99.90
9193;DHT22;4631;49.296;10.560;2023-06-26T07:22:41;23.40;99.90
9193;DHT22;4631;49.296;10.560;2023-06-26T07:28:12;23.60;99.90
9193;DHT22;4631;49.296;10.560;2023-06-26T07:33:07;23.80;99.90
9193;DHT22;4631;49.296;10.560;2023-06-26T07:35:34;23.80;99.90
9193;DHT22;4631;49.296;10.560;2023-06-26T07:38:00;23.90;99.90
9193;DHT22;4631;49.296;10.560;2023-06-26T07:46:35;24.20;99.90
9193;DHT22;4631;49.296;10.560;2023-06-26T07:49:01;24.40;99.90
9193;DHT22;4631;49.296;10.560;2023-06-26T07:54:05;24.70;99.90
9193;DHT22;4631;49.296;10.560;2023-06-26T07:56:34;24.80;99.90
9193;DHT22;4631;49.296;10.560;2023-06-26T07:59:01;24.90;99.90
9193;DHT22;4631;49.296;10.560;2023-06-26T08:01:29;25.00;99.90
9193;DHT22;4631;49.296;10.560;2023-06-26T08:03:58;25.00;99.90
9193;DHT22;4631;49.296;10.560;2023-06-26T08:06:25;25.10;99.90
9193;DHT22;4631;49.296;10.560;2023-06-26T08:08:52;25.20;99.90
9193;DHT22;4631;49.296;10.560;2023-06-26T08:11:19;25.20;99.90
9193;DHT22;4631;49.296;10.560;2023-06-26T08:13:54;25.30;99.90
9193;DHT22;4631;49.296;10.560;2023-06-26T08:16:21;25.30;99.90
9193;DHT22;4631;49.296;10.560;2023-06-26T08:18:48;25.40;99.90
9193;DHT22;4631;49.296;10.560;2023-06-26T08:21:16;25.50;99.90
9193;DHT22;4631;49.296;10.560;2023-06-26T08:23:43;25.60;99.90
9193;DHT22;4631;49.296;10.560;2023-06-26T08:26:09;25.70;99.90
9193;DHT22;4631;49.296;10.560;2023-06-26T08:28:45;25.70;99.90
9193;DHT22;4631;49.296;10.560;2023-06-26T08:34:19;25.90;99.90
9193;DHT22;4631;49.296;10.560;2023-06-26T08:36:50;26.10;99.90
9193;DHT22;4631;49.296;10.560;2023-06-26T08:39:16;26.10;99.90
9193;DHT22;4631;49.296;10.560;2023-06-26T08:41:44;26.20;99.90
9193;DHT22;4631;49.296;10.560;2023-06-26T08:44:11;26.30;99.90
9193;DHT22;4631;49.296;10.560;2023-06-26T08:46:37;26.40;99.90
9193;DHT22;4631;49.296;10.560;2023-06-26T08:49:05;26.50;99.90
9193;DHT22;4631;49.296;10.560;2023-06-26T08:51:36;26.50;99.90
9193;DHT22;4631;49.296;10.560;2023-06-26T08:56:41;26.70;99.90
9193;DHT22;4631;49.296;10.560;2023-06-26T08:59:08;26.70;99.90
9193;DHT22;4631;49.296;10.560;2023-06-26T09:04:22;26.90;99.90
9193;DHT22;4631;49.296;10.560;2023-06-26T09:06:48;26.90;99.90
9193;DHT22;4631;49.296;10.560;2023-06-26T09:09:15;27.00;99.90
9193;DHT22;4631;49.296;10.560;2023-06-26T09:11:43;27.10;99.90
9193;DHT22;4631;49.296;10.560;2023-06-26T09:14:10;27.10;99.90
9193;DHT22;4631;49.296;10.560;2023-06-26T09:16:41;27.20;99.90
9193;DHT22;4631;49.296;10.560;2023-06-26T09:19:08;27.20;99.20
9193;DHT22;4631;49.296;10.560;2023-06-26T09:21:36;27.30;98.50
9193;DHT22;4631;49.296;10.560;2023-06-26T09:24:03;27.40;98.60
9193;DHT22;4631;49.296;10.560;2023-06-26T09:26:30;27.40;98.70
9193;DHT22;4631;49.296;10.560;2023-06-26T09:29:05;27.50;97.90
9193;DHT22;4631;49.296;10.560;2023-06-26T09:31:32;27.70;97.50
9193;DHT22;4631;49.296;10.560;2023-06-26T09:34:12;27.80;97.20
9193;DHT22;4631;49.296;10.560;2023-06-26T09:36:39;27.80;97.20
9193;DHT22;4631;49.296;10.560;2023-06-26T09:39:08;27.90;96.90
9193;DHT22;4631;49.296;10.560;2023-06-26T09:41:36;28.00;96.90
9193;DHT22;4631;49.296;10.560;2023-06-26T09:44:05;28.10;95.80
9193;DHT22;4631;49.296;10.560;2023-06-26T09:46:33;28.20;94.90
9193;DHT22;4631;49.296;10.560;2023-06-26T09:49:00;28.20;94.90
9193;DHT22;4631;49.296;10.560;2023-06-26T09:51:28;28.30;95.30
9193;DHT22;4631;49.296;10.560;2023-06-26T09:54:04;28.40;95.00
9193;DHT22;4631;49.296;10.560;2023-06-26T09:56:31;28.50;94.70
9193;DHT22;4631;49.296;10.560;2023-06-26T09:58:58;28.50;93.60
9193;DHT22;4631;49.296;10.560;2023-06-26T10:01:27;28.60;94.00
9193;DHT22;4631;49.296;10.560;2023-06-26T10:03:54;28.70;93.80
9193;DHT22;4631;49.296;10.560;2023-06-26T10:06:23;28.80;93.50
9193;DHT22;4631;49.296;10.560;2023-06-26T10:08:50;28.80;93.20
9193;DHT22;4631;49.296;10.560;2023-06-26T10:11:19;28.90;92.90
9193;DHT22;4631;49.296;10.560;2023-06-26T10:13:56;29.00;93.10
9193;DHT22;4631;49.296;10.560;2023-06-26T10:16:28;29.10;93.10
9193;DHT22;4631;49.296;10.560;2023-06-26T10:19:04;29.20;92.50
9193;DHT22;4631;49.296;10.560;2023-06-26T10:21:44;29.30;92.40
9193;DHT22;4631;49.296;10.560;2023-06-26T10:24:11;29.40;92.50
9193;DHT22;4631;49.296;10.560;2023-06-26T10:26:40;29.50;93.00
9193;DHT22;4631;49.296;10.560;2023-06-26T10:29:08;29.60;93.30
9193;DHT22;4631;49.296;10.560;2023-06-26T10:31:37;29.80;93.00
9193;DHT22;4631;49.296;10.560;2023-06-26T10:34:05;29.90;92.20
9193;DHT22;4631;49.296;10.560;2023-06-26T10:36:35;29.70;92.10
9193;DHT22;4631;49.296;10.560;2023-06-26T10:39:03;29.80;91.90
9193;DHT22;4631;49.296;10.560;2023-06-26T10:41:36;29.80;91.50
9193;DHT22;4631;49.296;10.560;2023-06-26T10:46:52;30.00;92.00
9193;DHT22;4631;49.296;10.560;2023-06-26T10:49:19;30.20;91.50
9193;DHT22;4631;49.296;10.560;2023-06-26T10:54:46;30.40;91.00
9193;DHT22;4631;49.296;10.560;2023-06-26T10:57:13;30.50;90.90
9193;DHT22;4631;49.296;10.560;2023-06-26T10:59:49;30.50;91.20
9193;DHT22;4631;49.296;10.560;2023-06-26T11:12:00;30.90;90.40
9193;DHT22;4631;49.296;10.560;2023-06-26T11:14:33;31.00;89.40
9193;DHT22;4631;49.296;10.560;2023-06-26T11:17:03;31.10;88.80
9193;DHT22;4631;49.296;10.560;2023-06-26T11:19:30;31.20;87.90
9193;DHT22;4631;49.296;10.560;2023-06-26T11:22:03;31.30;88.30
9193;DHT22;4631;49.296;10.560;2023-06-26T11:24:31;31.40;87.20
9193;DHT22;4631;49.296;10.560;2023-06-26T11:27:04;31.50;88.00
9193;DHT22;4631;49.296;10.560;2023-06-26T11:29:34;31.60;85.40
9193;DHT22;4631;49.296;10.560;2023-06-26T11:32:08;31.60;86.90
9193;DHT22;4631;49.296;10.560;2023-06-26T11:34:39;31.70;84.60
9193;DHT22;4631;49.296;10.560;2023-06-26T11:37:08;31.70;83.90
9193;DHT22;4631;49.296;10.560;2023-06-26T11:39:35;31.70;84.10
9193;DHT22;4631;49.296;10.560;2023-06-26T11:42:04;31.50;83.50
9193;DHT22;4631;49.296;10.560;2023-06-26T11:44:31;31.40;83.70
9193;DHT22;4631;49.296;10.560;2023-06-26T11:46:58;31.30;84.00
9193;DHT22;4631;49.296;10.560;2023-06-26T11:49:28;31.50;84.20
9193;DHT22;4631;49.296;10.560;2023-06-26T11:51:55;31.60;85.10
9193;DHT22;4631;49.296;10.560;2023-06-26T11:54:25;31.60;85.10
9193;DHT22;4631;49.296;10.560;2023-06-26T11:56:53;31.80;84.90
9193;DHT22;4631;49.296;10.560;2023-06-26T11:59:23;31.90;86.70
9193;DHT22;4631;49.296;10.560;2023-06-26T12:01:50;31.90;86.40
9193;DHT22;4631;49.296;10.560;2023-06-26T12:04:18;31.70;87.00
9193;DHT22;4631;49.296;10.560;2023-06-26T12:06:46;31.50;87.40
9193;DHT22;4631;49.296;10.560;2023-06-26T12:09:13;31.40;87.50
9193;DHT22;4631;49.296;10.560;2023-06-26T12:13:01;31.20;87.80
9193;DHT22;4631;49.296;10.560;2023-06-26T12:14:58;31.20;88.40
9193;DHT22;4631;49.296;10.560;2023-06-26T12:17:25;31.30;88.60
9193;DHT22;4631;49.296;10.560;2023-06-26T12:19:52;31.50;89.00
9193;DHT22;4631;49.296;10.560;2023-06-26T12:22:19;31.70;89.10
9193;DHT22;4631;49.296;10.560;2023-06-26T12:24:46;32.00;89.80
9193;DHT22;4631;49.296;10.560;2023-06-26T12:27:14;32.20;88.60
9193;DHT22;4631;49.296;10.560;2023-06-26T12:29:42;32.40;88.80
9193;DHT22;4631;49.296;10.560;2023-06-26T12:32:10;32.50;87.70
9193;DHT22;4631;49.296;10.560;2023-06-26T12:34:37;32.50;86.50
9193;DHT22;4631;49.296;10.560;2023-06-26T12:37:05;32.50;87.20
9193;DHT22;4631;49.296;10.560;2023-06-26T12:39:44;32.40;86.90
9193;DHT22;4631;49.296;10.560;2023-06-26T12:42:13;32.30;87.50
9193;DHT22;4631;49.296;10.560;2023-06-26T12:44:40;32.20;87.90
9193;DHT22;4631;49.296;10.560;2023-06-26T12:47:06;32.00;88.50
9193;DHT22;4631;49.296;10.560;2023-06-26T12:49:35;31.90;88.40
9193;DHT22;4631;49.296;10.560;2023-06-26T12:52:03;31.70;89.20
9193;DHT22;4631;49.296;10.560;2023-06-26T12:54:30;31.50;90.10
9193;DHT22;4631;49.296;10.560;2023-06-26T12:56:57;31.50;90.50
9193;DHT22;4631;49.296;10.560;2023-06-26T12:59:23;31.30;90.50
9193;DHT22;4631;49.296;10.560;2023-06-26T13:01:50;31.10;91.20
9193;DHT22;4631;49.296;10.560;2023-06-26T13:04:17;31.10;91.00
9193;DHT22;4631;49.296;10.560;2023-06-26T13:06:45;31.10;91.70
9193;DHT22;4631;49.296;10.560;2023-06-26T13:09:12;31.10;90.60
9193;DHT22;4631;49.296;10.560;2023-06-26T13:11:38;31.00;91.30
9193;DHT22;4631;49.296;10.560;2023-06-26T13:14:05;31.00;90.80
9193;DHT22;4631;49.296;10.560;2023-06-26T13:16:35;30.90;91.20
9193;DHT22;4631;49.296;10.560;2023-06-26T13:19:07;31.00;91.30
9193;DHT22;4631;49.296;10.560;2023-06-26T13:21:34;31.20;91.10
9193;DHT22;4631;49.296;10.560;2023-06-26T13:24:03;31.50;90.90
9193;DHT22;4631;49.296;10.560;2023-06-26T13:26:30;31.80;91.00
9193;DHT22;4631;49.296;10.560;2023-06-26T13:28:57;32.00;90.30
9193;DHT22;4631;49.296;10.560;2023-06-26T13:31:23;32.20;87.50
9193;DHT22;4631;49.296;10.560;2023-06-26T13:33:50;32.20;86.30
9193;DHT22;4631;49.296;10.560;2023-06-26T13:36:17;32.20;87.70
9193;DHT22;4631;49.296;10.560;2023-06-26T13:38:44;32.30;86.70
9193;DHT22;4631;49.296;10.560;2023-06-26T13:41:18;32.50;87.70
9193;DHT22;4631;49.296;10.560;2023-06-26T13:43:55;32.50;88.80
9193;DHT22;4631;49.296;10.560;2023-06-26T13:46:28;32.50;88.80
9193;DHT22;4631;49.296;10.560;2023-06-26T13:48:54;32.50;89.60
9193;DHT22;4631;49.296;10.560;2023-06-26T13:51:21;32.60;88.40
9193;DHT22;4631;49.296;10.560;2023-06-26T13:53:48;32.80;88.30
9193;DHT22;4631;49.296;10.560;2023-06-26T13:56:16;32.80;89.10
9193;DHT22;4631;49.296;10.560;2023-06-26T13:58:42;32.60;88.90
9193;DHT22;4631;49.296;10.560;2023-06-26T14:01:09;32.70;89.80
9193;DHT22;4631;49.296;10.560;2023-06-26T14:03:35;32.90;90.30
9193;DHT22;4631;49.296;10.560;2023-06-26T14:06:02;32.90;90.30
9193;DHT22;4631;49.296;10.560;2023-06-26T14:08:29;32.90;90.00
9193;DHT22;4631;49.296;10.560;2023-06-26T14:10:56;32.80;90.50
9193;DHT22;4631;49.296;10.560;2023-06-26T14:13:24;32.50;90.90
9193;DHT22;4631;49.296;10.560;2023-06-26T14:15:50;32.50;91.60
9193;DHT22;4631;49.296;10.560;2023-06-26T14:18:18;32.70;92.20
9193;DHT22;4631;49.296;10.560;2023-06-26T14:20:44;32.60;91.60
9193;DHT22;4631;49.296;10.560;2023-06-26T14:23:11;32.20;92.10
9193;DHT22;4631;49.296;10.560;2023-06-26T14:25:38;31.90;93.00
9193;DHT22;4631;49.296;10.560;2023-06-26T14:28:04;31.60;93.40
9193;DHT22;4631;49.296;10.560;2023-06-26T14:30:32;31.70;93.80
9193;DHT22;4631;49.296;10.560;2023-06-26T14:32:59;31.80;93.50
9193;DHT22;4631;49.296;10.560;2023-06-26T14:35:25;31.60;93.80
9193;DHT22;4631;49.296;10.560;2023-06-26T14:37:52;31.60;93.80
9193;DHT22;4631;49.296;10.560;2023-06-26T14:40:19;31.90;93.80
9193;DHT22;4631;49.296;10.560;2023-06-26T14:42:45;31.90;94.10
9193;DHT22;4631;49.296;10.560;2023-06-26T14:45:12;31.90;93.70
9193;DHT22;4631;49.296;10.560;2023-06-26T14:47:40;32.00;93.60
9193;DHT22;4631;49.296;10.560;2023-06-26T14:50:07;31.90;93.80
9193;DHT22;4631;49.296;10.560;2023-06-26T14:52:34;31.80;94.40
9193;DHT22;4631;49.296;10.560;2023-06-26T14:55:03;31.80;94.10
9193;DHT22;4631;49.296;10.560;2023-06-26T14:57:30;31.60;94.70
9193;DHT22;4631;49.296;10.560;2023-06-26T14:59:56;31.50;94.90
9193;DHT22;4631;49.296;10.560;2023-06-26T15:02:23;31.50;95.40
9193;DHT22;4631;49.296;10.560;2023-06-26T15:04:51;31.50;94.70
9193;DHT22;4631;49.296;10.560;2023-06-26T15:07:17;31.20;95.10
9193;DHT22;4631;49.296;10.560;2023-06-26T15:09:44;31.30;95.40
9193;DHT22;4631;49.296;10.560;2023-06-26T15:12:11;31.30;95.40
9193;DHT22;4631;49.296;10.560;2023-06-26T15:14:38;31.30;95.20
9193;DHT22;4631;49.296;10.560;2023-06-26T15:17:04;31.30;94.70
9193;DHT22;4631;49.296;10.560;2023-06-26T15:19:31;31.30;94.50
9193;DHT22;4631;49.296;10.560;2023-06-26T15:21:59;31.30;94.40
9193;DHT22;4631;49.296;10.560;2023-06-26T15:24:25;31.40;94.10
9193;DHT22;4631;49.296;10.560;2023-06-26T15:26:52;31.40;93.80
9193;DHT22;4631;49.296;10.560;2023-06-26T15:29:19;31.40;93.70
9193;DHT22;4631;49.296;10.560;2023-06-26T15:31:45;31.20;92.80
9193;DHT22;4631;49.296;10.560;2023-06-26T15:34:12;31.10;93.10
9193;DHT22;4631;49.296;10.560;2023-06-26T15:36:39;31.00;93.20
9193;DHT22;4631;49.296;10.560;2023-06-26T15:39:07;31.00;93.10
9193;DHT22;4631;49.296;10.560;2023-06-26T15:41:33;30.90;92.50
9193;DHT22;4631;49.296;10.560;2023-06-26T15:44:02;30.90;92.60
9193;DHT22;4631;49.296;10.560;2023-06-26T15:46:28;30.70;92.80
9193;DHT22;4631;49.296;10.560;2023-06-26T15:48:55;30.70;93.10
9193;DHT22;4631;49.296;10.560;2023-06-26T15:51:22;30.80;92.90
9193;DHT22;4631;49.296;10.560;2023-06-26T15:53:48;30.70;92.00
9193;DHT22;4631;49.296;10.560;2023-06-26T15:56:16;30.60;92.30
9193;DHT22;4631;49.296;10.560;2023-06-26T15:58:43;30.40;92.30
9193;DHT22;4631;49.296;10.560;2023-06-26T16:01:11;30.30;93.00
9193;DHT22;4631;49.296;10.560;2023-06-26T16:03:38;30.30;92.30
9193;DHT22;4631;49.296;10.560;2023-06-26T16:06:05;30.30;92.50
9193;DHT22;4631;49.296;10.560;2023-06-26T16:08:31;30.30;92.50
9193;DHT22;4631;49.296;10.560;2023-06-26T16:10:58;30.10;92.10
9193;DHT22;4631;49.296;10.560;2023-06-26T16:13:26;30.00;92.40
9193;DHT22;4631;49.296;10.560;2023-06-26T16:15:53;29.90;92.20
9193;DHT22;4631;49.296;10.560;2023-06-26T16:18:20;29.70;92.20
9193;DHT22;4631;49.296;10.560;2023-06-26T16:20:46;29.70;92.70
9193;DHT22;4631;49.296;10.560;2023-06-26T16:23:13;29.80;92.90
9193;DHT22;4631;49.296;10.560;2023-06-26T16:25:40;29.90;91.90
9193;DHT22;4631;49.296;10.560;2023-06-26T16:28:06;30.00;91.10
9193;DHT22;4631;49.296;10.560;2023-06-26T16:30:34;30.20;91.00
9193;DHT22;4631;49.296;10.560;2023-06-26T16:33:01;30.30;91.10
9193;DHT22;4631;49.296;10.560;2023-06-26T16:35:28;30.20;90.80
9193;DHT22;4631;49.296;10.560;2023-06-26T16:37:59;30.20;90.80
9193;DHT22;4631;49.296;10.560;2023-06-26T16:40:25;30.10;90.50
9193;DHT22;4631;49.296;10.560;2023-06-26T16:42:52;30.10;90.80
9193;DHT22;4631;49.296;10.560;2023-06-26T16:45:19;29.80;90.90
9193;DHT22;4631;49.296;10.560;2023-06-26T16:47:47;29.80;91.10
9193;DHT22;4631;49.296;10.560;2023-06-26T16:50:13;29.60;91.10
9193;DHT22;4631;49.296;10.560;2023-06-26T16:52:40;29.40;91.40
9193;DHT22;4631;49.296;10.560;2023-06-26T16:55:08;29.20;91.70
9193;DHT22;4631;49.296;10.560;2023-06-26T16:57:35;29.20;91.40
9193;DHT22;4631;49.296;10.560;2023-06-26T17:00:02;29.10;91.50
9193;DHT22;4631;49.296;10.560;2023-06-26T17:02:29;29.10;91.80
9193;DHT22;4631;49.296;10.560;2023-06-26T17:04:57;29.00;90.90
9193;DHT22;4631;49.296;10.560;2023-06-26T17:07:24;28.90;91.10
9193;DHT22;4631;49.296;10.560;2023-06-26T17:09:50;28.80;91.30
9193;DHT22;4631;49.296;10.560;2023-06-26T17:12:17;28.70;91.10
9193;DHT22;4631;49.296;10.560;2023-06-26T17:14:44;28.50;91.20
9193;DHT22;4631;49.296;10.560;2023-06-26T17:17:10;28.30;91.40
9193;DHT22;4631;49.296;10.560;2023-06-26T17:19:40;28.10;91.60
9193;DHT22;4631;49.296;10.560;2023-06-26T17:22:08;28.00;91.70
9193;DHT22;4631;49.296;10.560;2023-06-26T17:24:35;28.00;91.80
9193;DHT22;4631;49.296;10.560;2023-06-26T17:27:08;28.10;92.10
9193;DHT22;4631;49.296;10.560;2023-06-26T17:29:35;28.00;92.30
9193;DHT22;4631;49.296;10.560;2023-06-26T17:32:02;28.10;92.40
9193;DHT22;4631;49.296;10.560;2023-06-26T17:34:29;28.00;92.60
9193;DHT22;4631;49.296;10.560;2023-06-26T17:36:55;27.90;92.70
9193;DHT22;4631;49.296;10.560;2023-06-26T17:39:23;27.90;92.70
9193;DHT22;4631;49.296;10.560;2023-06-26T17:41:51;28.00;93.00
9193;DHT22;4631;49.296;10.560;2023-06-26T17:44:18;28.10;92.80
9193;DHT22;4631;49.296;10.560;2023-06-26T17:46:44;28.20;92.70
9193;DHT22;4631;49.296;10.560;2023-06-26T17:49:11;28.00;92.50
9193;DHT22;4631;49.296;10.560;2023-06-26T17:51:38;27.90;92.70